Time;durP1;ratioP1;P1;durP2;ratioP2;P2;SDS_P1;SDS_P2;PMS_P1;PMS_P2;Temp;Humidity;BMP_temperature;BMP_pressure;BME280_temperature;BME280_humidity;BME280_pressure;Samples;Min_cycle;Max_cycle;Signal;HPM_P1;HPM_P2
2020/12/24 00:01:56;;;;;;;19.30;2.43;;;11.30;99.90;;;;;;5028508;28;20263;-78
2020/12/24 00:04:21;;;;;;;16.77;2.30;;;11.30;99.90;;;;;;5028784;28;20541;-78
2020/12/24 00:06:47;;;;;;;14.10;1.97;;;11.30;99.90;;;;;;5047187;28;20211;-78
2020/12/24 00:09:13;;;;;;;17.43;2.90;;;11.30;99.90;;;;;;5030435;28;20189;-78
2020/12/24 00:11:38;;;;;;;16.37;2.50;;;11.30;99.90;;;;;;5031866;28;20586;-78
2020/12/24 00:14:05;;;;;;;24.40;3.00;;;11.30;99.90;;;;;;5030536;28;20186;-78
2020/12/24 00:16:30;;;;;;;17.03;2.20;;;11.30;99.90;;;;;;5029683;28;20215;-78
2020/12/24 00:18:56;;;;;;;13.53;2.53;;;11.30;99.90;;;;;;5032396;28;20241;-78
2020/12/24 00:21:22;;;;;;;16.73;2.60;;;11.40;99.90;;;;;;5032010;28;20187;-78
2020/12/24 00:23:47;;;;;;;15.53;2.13;;;11.30;99.90;;;;;;5034218;28;20180;-78
2020/12/24 00:26:13;;;;;;;18.40;2.37;;;11.30;99.90;;;;;;5031978;28;20307;-78
2020/12/24 00:28:39;;;;;;;16.13;2.37;;;11.20;99.90;;;;;;5029524;28;20537;-78
2020/12/24 00:31:07;;;;;;;18.03;2.70;;;11.40;99.90;;;;;;5033592;28;20214;-77
2020/12/24 00:33:33;;;;;;;15.50;2.20;;;11.30;99.90;;;;;;5028385;28;20228;-78
2020/12/24 00:35:58;;;;;;;19.20;2.50;;;11.30;99.90;;;;;;5033855;28;20241;-78
2020/12/24 00:38:24;;;;;;;16.27;2.27;;;11.10;99.90;;;;;;5024879;28;20182;-78
2020/12/24 00:40:50;;;;;;;20.47;2.73;;;11.10;99.90;;;;;;5028887;28;20651;-78
2020/12/24 00:43:15;;;;;;;18.00;2.90;;;11.10;99.90;;;;;;5034827;28;20653;-78
2020/12/24 00:45:44;;;;;;;15.77;2.40;;;10.90;99.90;;;;;;5026133;28;20189;-78
2020/12/24 00:48:09;;;;;;;18.40;3.07;;;10.80;99.90;;;;;;5048343;28;20695;-78
2020/12/24 00:50:35;;;;;;;13.77;2.40;;;10.70;99.90;;;;;;5030144;28;20238;-79
2020/12/24 00:53:01;;;;;;;15.70;2.77;;;10.70;99.90;;;;;;5029561;28;20273;-78
2020/12/24 00:55:27;;;;;;;14.73;2.20;;;10.60;99.90;;;;;;5020954;28;20193;-78
2020/12/24 00:57:55;;;;;;;13.13;2.10;;;10.70;99.90;;;;;;5045767;28;20284;-79
2020/12/24 01:00:22;;;;;;;15.63;2.20;;;10.70;99.90;;;;;;5034173;28;20678;-78
2020/12/24 01:02:47;;;;;;;13.53;2.10;;;10.70;99.90;;;;;;5029595;28;20217;-78
2020/12/24 01:05:13;;;;;;;15.77;2.40;;;10.60;99.90;;;;;;5045321;28;20185;-78
2020/12/24 01:07:39;;;;;;;16.80;2.83;;;10.60;99.90;;;;;;5031480;28;20978;-78
2020/12/24 01:10:06;;;;;;;19.77;2.50;;;10.60;99.90;;;;;;5028764;28;20186;-78
2020/12/24 01:12:32;;;;;;;14.43;2.17;;;10.70;99.90;;;;;;5031929;28;20205;-78
2020/12/24 01:14:58;;;;;;;13.57;1.90;;;10.70;99.90;;;;;;5013469;28;20235;-78
2020/12/24 01:17:24;;;;;;;15.23;2.37;;;10.70;99.90;;;;;;5029533;28;20217;-77
2020/12/24 01:19:49;;;;;;;19.00;2.47;;;10.60;99.90;;;;;;5025223;28;20174;-78
2020/12/24 01:22:15;;;;;;;14.60;1.97;;;10.60;99.90;;;;;;5031545;28;20186;-78
2020/12/24 01:24:40;;;;;;;17.83;2.67;;;10.70;99.90;;;;;;5032141;28;20181;-78
2020/12/24 01:27:06;;;;;;;17.90;2.03;;;10.70;99.90;;;;;;5030605;28;20261;-79
2020/12/24 01:29:32;;;;;;;17.53;2.60;;;10.70;99.90;;;;;;5033070;28;20706;-78
2020/12/24 01:31:57;;;;;;;11.63;1.80;;;10.60;99.90;;;;;;5022122;28;20198;-77
2020/12/24 01:34:23;;;;;;;19.00;2.53;;;10.50;99.90;;;;;;5028420;28;20190;-78
2020/12/24 01:36:51;;;;;;;16.80;2.60;;;10.50;99.90;;;;;;5032598;28;20201;-78
2020/12/24 01:39:16;;;;;;;15.50;2.30;;;10.40;99.90;;;;;;5029778;28;20191;-79
2020/12/24 01:41:42;;;;;;;15.43;1.83;;;10.50;99.90;;;;;;5028922;28;20596;-78
2020/12/24 01:44:08;;;;;;;16.53;2.50;;;10.60;99.90;;;;;;5030047;28;20210;-78
2020/12/24 01:46:33;;;;;;;16.97;2.40;;;10.70;99.90;;;;;;5026012;28;20651;-78
2020/12/24 01:48:59;;;;;;;14.80;2.43;;;10.70;99.90;;;;;;5020884;28;20243;-78
2020/12/24 01:51:26;;;;;;;18.30;3.00;;;10.60;99.90;;;;;;5033035;28;20747;-78
2020/12/24 01:53:56;;;;;;;14.63;1.90;;;10.60;99.90;;;;;;5032337;28;20718;-78
2020/12/24 01:56:23;;;;;;;19.17;2.10;;;10.60;99.90;;;;;;5032007;28;20680;-78
2020/12/24 01:58:54;;;;;;;14.93;2.00;;;10.50;99.90;;;;;;5045686;28;20234;-78
2020/12/24 02:01:20;;;;;;;18.17;2.33;;;10.50;99.90;;;;;;5032197;28;20262;-78
2020/12/24 02:03:46;;;;;;;19.87;2.30;;;10.50;99.90;;;;;;5047044;28;20197;-78
2020/12/24 02:06:12;;;;;;;18.77;2.30;;;10.40;99.90;;;;;;5023406;28;20210;-78
2020/12/24 02:08:39;;;;;;;13.17;2.40;;;10.50;99.90;;;;;;5033228;28;20259;-79
2020/12/24 02:11:06;;;;;;;15.30;2.27;;;10.50;99.90;;;;;;5032079;28;20247;-78
2020/12/24 02:13:32;;;;;;;16.37;2.20;;;10.60;99.90;;;;;;5032452;28;20296;-78
2020/12/24 02:15:58;;;;;;;22.67;2.43;;;10.60;99.90;;;;;;5032706;28;20292;-78
2020/12/24 02:18:25;;;;;;;15.03;1.77;;;10.50;99.90;;;;;;5032150;28;20575;-80
2020/12/24 02:20:51;;;;;;;16.13;2.03;;;10.60;99.90;;;;;;5032373;28;20229;-78
2020/12/24 02:23:16;;;;;;;15.70;2.10;;;10.60;99.90;;;;;;5048248;28;20656;-77
2020/12/24 02:25:42;;;;;;;16.67;2.50;;;10.70;99.90;;;;;;5031460;28;20213;-78
2020/12/24 02:28:09;;;;;;;19.37;2.60;;;10.70;99.90;;;;;;5026982;28;20220;-78
2020/12/24 02:30:35;;;;;;;12.23;1.97;;;10.80;99.90;;;;;;5043247;28;20199;-78
2020/12/24 02:33:01;;;;;;;11.20;1.63;;;10.80;99.90;;;;;;5032776;28;20209;-78
2020/12/24 02:35:27;;;;;;;16.07;2.13;;;10.70;99.90;;;;;;5032581;28;20202;-77
2020/12/24 02:37:52;;;;;;;12.67;1.80;;;10.70;99.90;;;;;;5032804;28;20736;-77
2020/12/24 02:40:18;;;;;;;14.67;1.80;;;10.70;99.90;;;;;;5032264;28;20221;-77
2020/12/24 02:42:44;;;;;;;12.00;1.80;;;10.70;99.90;;;;;;5029041;28;20202;-77
2020/12/24 02:45:10;;;;;;;17.07;1.63;;;10.60;99.90;;;;;;5031953;28;20580;-77
2020/12/24 02:47:36;;;;;;;16.13;2.60;;;10.70;99.90;;;;;;5025367;28;20205;-77
2020/12/24 02:50:05;;;;;;;11.83;1.83;;;10.80;99.90;;;;;;5014965;28;20240;-77
2020/12/24 02:52:31;;;;;;;17.00;2.33;;;10.80;99.90;;;;;;5026591;28;20282;-77
2020/12/24 02:54:57;;;;;;;16.60;2.03;;;10.70;99.90;;;;;;5025815;28;20293;-78
2020/12/24 02:57:22;;;;;;;14.53;1.83;;;10.80;99.90;;;;;;5026955;28;20684;-77
2020/12/24 02:59:48;;;;;;;14.93;2.13;;;10.80;99.90;;;;;;5010848;28;20203;-78
2020/12/24 03:02:14;;;;;;;15.77;1.97;;;10.80;99.90;;;;;;5039070;28;20201;-77
2020/12/24 03:04:39;;;;;;;11.97;2.07;;;10.80;99.90;;;;;;5035225;28;20199;-78
2020/12/24 03:07:05;;;;;;;16.13;2.13;;;10.70;99.90;;;;;;5030843;28;20249;-77
2020/12/24 03:09:31;;;;;;;21.57;2.30;;;10.70;99.90;;;;;;5030987;28;20210;-78
2020/12/24 03:11:59;;;;;;;19.40;2.30;;;10.70;99.90;;;;;;5032196;28;20241;-77
2020/12/24 03:14:24;;;;;;;13.00;2.50;;;10.70;99.90;;;;;;5030488;28;20201;-77
2020/12/24 03:16:50;;;;;;;16.77;2.57;;;10.60;99.90;;;;;;5025106;28;20708;-78
2020/12/24 03:19:16;;;;;;;16.10;2.20;;;10.50;99.90;;;;;;5030298;28;20660;-77
2020/12/24 03:21:41;;;;;;;15.60;2.50;;;10.40;99.90;;;;;;5030059;28;20287;-77
2020/12/24 03:24:07;;;;;;;17.37;2.77;;;10.40;99.90;;;;;;5020358;28;20203;-78
2020/12/24 03:26:33;;;;;;;15.90;2.63;;;10.30;99.90;;;;;;5037719;28;20220;-78
2020/12/24 03:28:59;;;;;;;15.63;2.80;;;10.30;99.90;;;;;;5019402;28;20201;-77
2020/12/24 03:31:25;;;;;;;15.23;2.10;;;10.30;99.90;;;;;;5033240;28;20267;-77
2020/12/24 03:33:52;;;;;;;13.83;2.17;;;10.30;99.90;;;;;;5035118;28;20222;-77
2020/12/24 03:36:18;;;;;;;14.63;2.23;;;10.30;99.90;;;;;;5033774;28;20231;-77
2020/12/24 03:38:44;;;;;;;13.73;2.10;;;10.30;99.90;;;;;;5020459;28;20205;-78
2020/12/24 03:41:11;;;;;;;14.93;1.87;;;10.30;99.90;;;;;;5028153;28;20232;-77
2020/12/24 03:43:36;;;;;;;15.57;3.10;;;10.20;99.90;;;;;;5035919;28;20237;-77
2020/12/24 03:46:02;;;;;;;14.23;1.57;;;10.20;99.90;;;;;;5037463;28;20635;-78
2020/12/24 03:48:28;;;;;;;12.73;2.00;;;10.20;99.90;;;;;;5029408;28;20213;-78
2020/12/24 03:50:54;;;;;;;10.03;1.63;;;10.20;99.90;;;;;;5040503;28;20971;-78
2020/12/24 03:53:20;;;;;;;12.63;1.90;;;10.10;99.90;;;;;;5032899;28;20204;-77
2020/12/24 03:55:45;;;;;;;13.00;1.77;;;10.10;99.90;;;;;;5033401;28;20216;-78
2020/12/24 03:58:11;;;;;;;11.00;1.80;;;10.00;99.90;;;;;;5034396;28;20204;-78
2020/12/24 04:00:37;;;;;;;13.83;1.80;;;9.90;99.90;;;;;;5035710;28;20668;-78
2020/12/24 04:03:03;;;;;;;11.63;1.70;;;9.90;99.90;;;;;;5030987;28;20603;-78
2020/12/24 04:05:28;;;;;;;15.47;1.83;;;9.90;99.90;;;;;;5028060;28;20231;-78
2020/12/24 04:07:54;;;;;;;14.07;1.80;;;9.90;99.90;;;;;;5017743;28;20193;-78
2020/12/24 04:10:20;;;;;;;12.33;1.70;;;10.00;99.90;;;;;;5006302;28;20209;-78
2020/12/24 04:12:46;;;;;;;13.70;2.23;;;10.00;99.90;;;;;;5049458;28;20343;-78
2020/12/24 04:15:11;;;;;;;15.20;2.00;;;10.20;99.90;;;;;;5034162;28;20572;-78
2020/12/24 04:17:37;;;;;;;17.10;1.87;;;10.20;99.90;;;;;;5032791;28;20552;-78
2020/12/24 04:20:03;;;;;;;13.63;1.67;;;10.20;99.90;;;;;;5050454;28;20201;-78
2020/12/24 04:22:29;;;;;;;15.23;1.90;;;10.20;99.90;;;;;;5035023;28;20241;-78
2020/12/24 04:24:55;;;;;;;12.87;1.70;;;10.20;99.90;;;;;;5035051;28;20236;-78
2020/12/24 04:27:21;;;;;;;12.43;1.70;;;10.10;99.90;;;;;;5030099;28;20201;-78
2020/12/24 04:29:47;;;;;;;18.20;2.70;;;10.00;99.90;;;;;;5035167;28;20482;-78
2020/12/24 04:32:12;;;;;;;10.50;1.70;;;10.00;99.90;;;;;;5030625;28;20206;-78
2020/12/24 04:34:38;;;;;;;11.30;1.87;;;10.00;99.90;;;;;;5031928;28;20207;-77
2020/12/24 04:37:04;;;;;;;18.77;2.37;;;10.00;99.90;;;;;;5025945;28;20212;-77
2020/12/24 04:39:29;;;;;;;12.37;2.10;;;10.00;99.90;;;;;;5024223;28;20248;-78
2020/12/24 04:41:58;;;;;;;17.27;2.10;;;10.00;99.90;;;;;;5027174;28;20198;-77
2020/12/24 04:44:29;;;;;;;15.17;2.10;;;10.10;99.90;;;;;;5026554;28;20553;-77
2020/12/24 04:46:55;;;;;;;13.27;2.10;;;10.20;99.90;;;;;;5011033;28;20195;-77
2020/12/24 04:49:25;;;;;;;19.13;2.47;;;10.20;99.90;;;;;;5028755;28;20313;-77
2020/12/24 04:51:51;;;;;;;17.60;2.90;;;10.20;99.90;;;;;;5033027;28;20183;-78
2020/12/24 04:54:18;;;;;;;17.70;2.90;;;10.20;99.90;;;;;;5032924;28;20638;-78
2020/12/24 04:56:44;;;;;;;15.97;2.50;;;10.10;99.90;;;;;;5033978;28;20209;-77
2020/12/24 04:59:10;;;;;;;16.50;3.07;;;10.20;99.90;;;;;;5030147;28;20189;-77
2020/12/24 05:01:36;;;;;;;16.77;3.17;;;10.10;99.90;;;;;;5030648;28;20678;-77
2020/12/24 05:04:02;;;;;;;13.37;2.50;;;10.20;99.90;;;;;;5031207;28;20194;-77
2020/12/24 05:06:28;;;;;;;18.97;3.00;;;10.20;99.90;;;;;;5034323;28;20212;-78
2020/12/24 05:08:58;;;;;;;14.97;2.23;;;10.20;99.90;;;;;;5031736;28;20285;-77
2020/12/24 05:11:32;;;;;;;14.43;2.17;;;10.10;99.90;;;;;;5027788;28;20235;-77
2020/12/24 05:14:17;;;;;;;13.50;2.70;;;10.10;99.90;;;;;;5031838;28;20224;-77
2020/12/24 05:17:00;;;;;;;17.83;2.50;;;10.10;99.90;;;;;;5007632;28;20209;-77
2020/12/24 05:19:28;;;;;;;16.43;2.57;;;10.10;99.90;;;;;;5031507;28;20644;-77
2020/12/24 05:21:54;;;;;;;15.30;2.27;;;10.00;99.90;;;;;;5029722;28;20182;-77
2020/12/24 05:24:22;;;;;;;16.10;2.20;;;9.90;99.90;;;;;;5028453;28;21686;-77
2020/12/24 05:26:47;;;;;;;14.63;2.37;;;10.00;99.90;;;;;;5034873;28;20185;-78
2020/12/24 05:29:13;;;;;;;14.73;2.37;;;10.00;99.90;;;;;;5028252;28;20185;-77
2020/12/24 05:31:39;;;;;;;12.30;2.03;;;10.10;99.90;;;;;;5030218;28;20192;-77
2020/12/24 05:34:04;;;;;;;12.93;2.10;;;10.20;99.90;;;;;;5031194;28;20208;-78
2020/12/24 05:36:30;;;;;;;16.17;1.97;;;10.30;99.90;;;;;;5029665;28;20193;-78
2020/12/24 05:38:56;;;;;;;12.33;2.10;;;10.20;99.90;;;;;;5031308;28;20631;-78
2020/12/24 05:41:36;;;;;;;12.83;2.00;;;10.20;99.90;;;;;;5042412;28;20192;-78
2020/12/24 05:44:10;;;;;;;15.40;1.90;;;10.10;99.90;;;;;;5043359;28;20699;-78
2020/12/24 05:46:44;;;;;;;12.90;1.67;;;10.10;99.90;;;;;;5029887;28;20196;-77
2020/12/24 05:49:17;;;;;;;16.33;2.33;;;10.10;99.90;;;;;;5025186;28;20240;-78
2020/12/24 05:51:54;;;;;;;16.57;1.83;;;9.90;99.90;;;;;;5031267;28;20181;-79
2020/12/24 05:54:21;;;;;;;12.90;1.83;;;9.90;99.90;;;;;;5026023;28;20190;-78
2020/12/24 05:56:47;;;;;;;17.73;2.37;;;9.90;99.90;;;;;;5027242;28;20695;-78
2020/12/24 05:59:24;;;;;;;15.73;2.27;;;9.90;99.90;;;;;;5026996;28;20189;-77
2020/12/24 06:02:12;;;;;;;15.97;2.47;;;9.90;99.90;;;;;;5028771;28;20192;-78
2020/12/24 06:04:44;;;;;;;15.20;2.30;;;9.90;99.90;;;;;;5029403;28;20656;-77
2020/12/24 06:07:14;;;;;;;17.27;2.77;;;9.90;99.90;;;;;;5027356;28;20231;-77
2020/12/24 06:09:42;;;;;;;16.50;2.37;;;10.00;99.90;;;;;;5016144;28;20203;-78
2020/12/24 06:12:26;;;;;;;13.00;2.03;;;10.10;99.90;;;;;;5028623;28;20186;-77
2020/12/24 06:14:56;;;;;;;11.73;1.83;;;10.10;99.90;;;;;;5029911;28;20192;-77
2020/12/24 06:17:23;;;;;;;12.57;1.90;;;10.10;99.90;;;;;;5039630;28;20227;-77
2020/12/24 06:19:49;;;;;;;13.57;1.93;;;10.10;99.90;;;;;;5028768;28;20180;-78
2020/12/24 06:22:20;;;;;;;14.30;2.30;;;10.10;99.90;;;;;;5027093;28;20197;-77
2020/12/24 06:24:54;;;;;;;15.00;2.50;;;10.10;99.90;;;;;;5030193;28;20177;-77
2020/12/24 06:27:37;;;;;;;13.63;2.57;;;10.10;99.90;;;;;;5030699;28;20182;-78
2020/12/24 06:30:15;;;;;;;13.47;2.10;;;10.00;99.90;;;;;;5028035;28;20193;-78
2020/12/24 06:32:47;;;;;;;11.33;2.30;;;9.90;99.90;;;;;;5031940;28;20203;-78
2020/12/24 06:35:32;;;;;;;17.70;2.20;;;10.00;99.90;;;;;;5027511;28;20247;-77
2020/12/24 06:37:57;;;;;;;14.97;2.70;;;10.00;99.90;;;;;;5031422;28;20205;-78
2020/12/24 06:40:37;;;;;;;17.10;3.17;;;10.00;99.90;;;;;;5029059;28;20189;-78
2020/12/24 06:43:10;;;;;;;15.93;3.20;;;10.00;99.90;;;;;;5024477;28;20683;-78
2020/12/24 06:45:38;;;;;;;17.17;3.30;;;10.00;99.90;;;;;;5031106;28;20204;-77
2020/12/24 06:48:16;;;;;;;14.97;3.73;;;10.00;99.90;;;;;;5026829;28;20331;-77
2020/12/24 06:50:45;;;;;;;12.97;3.90;;;10.10;99.90;;;;;;5047145;28;20231;-78
2020/12/24 06:53:32;;;;;;;16.30;4.10;;;10.20;99.90;;;;;;5045509;28;20308;-78
2020/12/24 06:56:16;;;;;;;15.27;4.50;;;10.10;99.90;;;;;;5043414;28;20215;-78
2020/12/24 06:58:46;;;;;;;15.80;4.60;;;10.00;99.90;;;;;;5046610;28;20215;-77
2020/12/24 07:01:16;;;;;;;13.50;4.00;;;9.80;99.90;;;;;;5027752;28;20676;-77
2020/12/24 07:03:43;;;;;;;12.70;5.33;;;9.70;99.90;;;;;;5029950;28;20185;-77
2020/12/24 07:06:09;;;;;;;17.77;6.53;;;9.60;99.90;;;;;;5032567;28;20185;-77
2020/12/24 07:08:35;;;;;;;19.53;6.80;;;9.40;99.90;;;;;;5026875;28;20326;-77
2020/12/24 07:11:04;;;;;;;16.50;7.30;;;9.10;99.90;;;;;;5041966;28;20754;-77
2020/12/24 07:13:38;;;;;;;18.30;8.40;;;8.80;99.90;;;;;;5026084;28;20244;-77
2020/12/24 07:16:08;;;;;;;23.03;11.67;;;8.50;99.90;;;;;;5029038;28;20208;-77
2020/12/24 07:18:35;;;;;;;24.30;12.97;;;8.40;99.90;;;;;;5025473;28;20208;-77
2020/12/24 07:21:03;;;;;;;29.03;15.90;;;8.40;99.90;;;;;;5030191;28;20321;-80
2020/12/24 07:23:30;;;;;;;30.23;17.53;;;8.40;99.90;;;;;;5026770;28;20187;-77
2020/12/24 07:26:01;;;;;;;36.13;19.47;;;8.50;99.90;;;;;;5028210;28;20675;-81
2020/12/24 07:28:31;;;;;;;44.03;20.37;;;8.50;99.90;;;;;;5032160;28;20210;-77
2020/12/24 07:31:02;;;;;;;33.37;19.07;;;8.40;99.90;;;;;;5022271;28;20546;-78
2020/12/24 07:33:28;;;;;;;37.80;20.27;;;8.50;99.90;;;;;;5014659;28;20212;-77
2020/12/24 07:35:54;;;;;;;29.60;18.73;;;8.50;99.90;;;;;;5023895;28;20193;-77
2020/12/24 07:38:21;;;;;;;33.60;20.00;;;8.50;99.90;;;;;;5039404;28;20272;-77
2020/12/24 07:40:47;;;;;;;36.33;21.17;;;8.60;99.90;;;;;;5027307;28;20851;-78
2020/12/24 07:43:13;;;;;;;31.70;20.37;;;8.60;99.90;;;;;;5030577;28;20169;-77
2020/12/24 07:45:40;;;;;;;36.20;24.90;;;8.70;99.90;;;;;;5025257;28;20677;-77
2020/12/24 07:48:20;;;;;;;41.33;25.93;;;8.70;99.90;;;;;;5032338;28;20263;-78
2020/12/24 07:50:48;;;;;;;42.23;27.23;;;8.60;99.90;;;;;;5026662;28;20241;-78
2020/12/24 07:53:26;;;;;;;40.97;26.10;;;8.60;99.90;;;;;;5046504;28;20650;-77
2020/12/24 07:55:52;;;;;;;22.30;13.53;;;8.40;99.90;;;;;;5026654;28;20179;-78
2020/12/24 07:58:18;;;;;;;13.20;8.13;;;8.10;99.90;;;;;;5042435;28;20204;-77
2020/12/24 08:00:52;;;;;;;8.50;4.40;;;7.80;99.90;;;;;;5013976;28;20333;-78
2020/12/24 08:03:19;;;;;;;8.63;5.00;;;7.50;99.90;;;;;;5029067;28;20258;-77
2020/12/24 08:05:46;;;;;;;6.03;3.37;;;7.50;99.90;;;;;;5029649;28;20663;-77
2020/12/24 08:08:13;;;;;;;3.83;2.17;;;7.40;99.90;;;;;;5031878;28;20579;-77
2020/12/24 08:10:44;;;;;;;4.37;2.23;;;7.10;99.90;;;;;;5025094;28;20190;-77
2020/12/24 08:13:10;;;;;;;6.23;2.60;;;6.80;99.90;;;;;;5027521;28;20274;-77
2020/12/24 08:15:44;;;;;;;5.77;2.70;;;6.80;99.90;;;;;;5023830;28;20256;-77
2020/12/24 08:18:12;;;;;;;6.47;3.23;;;6.60;99.90;;;;;;5012528;28;20176;-77
2020/12/24 08:20:40;;;;;;;6.70;3.40;;;6.60;99.90;;;;;;5032030;28;20542;-77
2020/12/24 08:23:17;;;;;;;6.17;2.63;;;6.50;99.90;;;;;;5044670;28;20195;-77
2020/12/24 08:25:45;;;;;;;4.27;2.40;;;6.50;99.90;;;;;;5029367;28;20195;-77
2020/12/24 08:28:11;;;;;;;6.93;3.20;;;6.40;99.90;;;;;;5029927;28;20181;-77
2020/12/24 08:30:37;;;;;;;5.57;2.67;;;6.40;99.90;;;;;;5031616;28;20227;-77
2020/12/24 08:33:05;;;;;;;5.83;2.87;;;6.40;99.90;;;;;;5015196;28;20182;-82
2020/12/24 08:35:31;;;;;;;4.07;2.07;;;6.40;99.90;;;;;;5022626;28;20179;-77
2020/12/24 08:38:13;;;;;;;4.33;2.27;;;6.30;99.90;;;;;;5029352;28;20266;-78
2020/12/24 08:40:39;;;;;;;3.73;2.20;;;6.40;99.90;;;;;;5029654;28;20225;-78
2020/12/24 08:43:10;;;;;;;5.37;2.47;;;6.40;99.90;;;;;;5047592;28;20194;-78
2020/12/24 08:45:43;;;;;;;3.83;1.70;;;6.30;99.90;;;;;;5043823;28;20637;-78
2020/12/24 08:48:26;;;;;;;2.87;1.87;;;6.30;99.90;;;;;;5046018;28;20170;-78
2020/12/24 08:50:51;;;;;;;5.33;1.60;;;6.30;99.90;;;;;;5029068;28;20314;-79
2020/12/24 08:53:25;;;;;;;3.00;1.50;;;6.30;99.90;;;;;;5024196;28;20283;-79
2020/12/24 08:55:51;;;;;;;2.93;1.60;;;6.40;99.90;;;;;;5028651;28;20189;-79
2020/12/24 08:58:17;;;;;;;3.50;1.60;;;6.30;99.90;;;;;;5026881;28;20547;-78
2020/12/24 09:00:42;;;;;;;3.97;1.87;;;6.20;99.90;;;;;;5025446;28;20173;-78
2020/12/24 09:03:25;;;;;;;3.80;1.87;;;6.30;99.90;;;;;;5031813;28;20190;-79
2020/12/24 09:05:51;;;;;;;3.97;2.00;;;6.30;99.90;;;;;;5035001;28;20172;-79
2020/12/24 09:08:27;;;;;;;3.57;1.77;;;6.40;99.90;;;;;;5030113;28;20201;-79
2020/12/24 09:10:54;;;;;;;4.57;2.13;;;6.40;99.90;;;;;;5047906;28;20173;-80
2020/12/24 09:13:20;;;;;;;4.00;2.03;;;6.50;99.90;;;;;;5043625;28;20178;-79
2020/12/24 09:15:46;;;;;;;3.63;1.80;;;6.50;99.90;;;;;;5018683;28;20178;-79
2020/12/24 09:18:12;;;;;;;3.60;1.80;;;6.40;99.90;;;;;;5031524;28;20195;-80
2020/12/24 09:20:38;;;;;;;2.53;1.60;;;6.40;99.90;;;;;;5046746;28;20289;-79
2020/12/24 09:23:09;;;;;;;2.77;1.60;;;6.40;99.90;;;;;;5029559;28;20215;-80
2020/12/24 09:25:42;;;;;;;3.73;1.57;;;6.40;99.90;;;;;;5028233;28;20188;-80
2020/12/24 09:28:37;;;;;;;2.23;1.13;;;6.50;99.90;;;;;;5037503;28;20170;-80
2020/12/24 09:31:02;;;;;;;3.37;1.50;;;6.40;99.90;;;;;;5006305;28;20559;-79
2020/12/24 09:33:29;;;;;;;3.90;1.20;;;6.40;99.90;;;;;;5029341;28;20270;-79
2020/12/24 09:35:55;;;;;;;3.60;1.27;;;6.50;99.90;;;;;;5031455;28;20196;-79
2020/12/24 09:38:21;;;;;;;4.70;1.60;;;6.50;99.90;;;;;;5029786;28;20231;-79
2020/12/24 09:40:47;;;;;;;3.73;1.40;;;6.50;99.90;;;;;;5046411;28;20233;-80
2020/12/24 09:43:13;;;;;;;3.23;1.47;;;6.50;99.90;;;;;;5015428;28;20189;-80
2020/12/24 09:45:39;;;;;;;2.67;1.63;;;6.40;99.90;;;;;;5047022;28;20265;-79
2020/12/24 09:48:05;;;;;;;3.97;1.70;;;6.30;99.90;;;;;;5027724;28;20246;-79
2020/12/24 09:50:31;;;;;;;4.70;2.27;;;6.40;99.90;;;;;;5041912;28;20238;-79
2020/12/24 09:52:57;;;;;;;6.27;2.13;;;6.40;99.90;;;;;;5025684;28;20181;-79
2020/12/24 09:55:23;;;;;;;4.53;2.50;;;6.50;99.90;;;;;;5035347;28;20189;-79
2020/12/24 09:57:48;;;;;;;5.23;2.40;;;6.60;99.90;;;;;;5029422;28;20207;-80
2020/12/24 10:00:14;;;;;;;4.70;2.23;;;6.70;99.90;;;;;;5047850;28;20194;-79
2020/12/24 10:02:40;;;;;;;5.50;2.70;;;6.70;99.90;;;;;;5031017;28;20199;-79
2020/12/24 10:05:06;;;;;;;6.43;3.03;;;6.60;99.90;;;;;;5041983;28;20229;-79
2020/12/24 10:07:32;;;;;;;5.93;2.80;;;6.70;99.90;;;;;;5028245;28;20237;-79
2020/12/24 10:09:58;;;;;;;7.67;2.70;;;6.80;99.90;;;;;;5040429;28;20175;-80
2020/12/24 10:12:25;;;;;;;3.10;1.90;;;6.70;99.90;;;;;;5042494;28;20197;-81
2020/12/24 10:14:53;;;;;;;3.50;1.93;;;6.70;99.90;;;;;;5025708;28;20250;-80
2020/12/24 10:17:19;;;;;;;5.30;2.77;;;6.60;99.90;;;;;;5031069;28;20243;-80
2020/12/24 10:19:45;;;;;;;4.77;2.20;;;6.60;99.90;;;;;;5040142;28;20196;-81
2020/12/24 10:22:12;;;;;;;5.37;2.40;;;6.70;99.90;;;;;;5031109;28;20267;-80
2020/12/24 10:24:38;;;;;;;5.87;2.30;;;6.70;99.90;;;;;;5029231;28;20178;-80
2020/12/24 10:27:07;;;;;;;5.87;2.53;;;6.80;99.90;;;;;;5030266;28;20639;-79
2020/12/24 10:29:34;;;;;;;4.83;2.57;;;7.00;99.90;;;;;;5015859;28;20201;-80
2020/12/24 10:31:59;;;;;;;7.10;2.60;;;7.00;99.90;;;;;;5025600;28;20291;-80
2020/12/24 10:34:25;;;;;;;6.33;2.87;;;6.90;99.90;;;;;;5031834;28;20285;-81
2020/12/24 10:36:51;;;;;;;7.40;3.10;;;7.20;99.90;;;;;;5028845;28;20223;-80
2020/12/24 10:39:17;;;;;;;5.63;2.80;;;7.30;99.90;;;;;;5029319;28;20720;-79
2020/12/24 10:41:48;;;;;;;6.63;2.80;;;7.20;99.90;;;;;;5035106;28;20202;-79
2020/12/24 10:44:14;;;;;;;7.47;3.43;;;7.00;99.90;;;;;;5031324;28;20690;-80
2020/12/24 10:46:39;;;;;;;6.97;3.70;;;7.10;99.90;;;;;;5038371;28;20341;-80
2020/12/24 10:49:05;;;;;;;6.90;3.70;;;7.20;99.90;;;;;;5045624;28;20243;-80
2020/12/24 10:51:31;;;;;;;6.57;3.60;;;7.30;99.90;;;;;;5029847;28;20582;-80
2020/12/24 10:53:57;;;;;;;9.43;4.07;;;7.40;99.90;;;;;;5030676;28;20284;-80
2020/12/24 10:56:22;;;;;;;8.80;4.20;;;7.30;99.90;;;;;;5047349;28;20215;-80
2020/12/24 10:58:49;;;;;;;7.07;4.00;;;7.50;99.90;;;;;;5030879;28;20209;-80
2020/12/24 11:01:17;;;;;;;7.30;4.10;;;7.30;99.90;;;;;;5022726;28;20286;-80
2020/12/24 11:03:43;;;;;;;7.07;3.60;;;7.40;99.90;;;;;;5030911;28;20308;-80
2020/12/24 11:06:17;;;;;;;5.40;2.90;;;7.40;99.90;;;;;;5047290;28;20219;-80
2020/12/24 11:08:43;;;;;;;6.43;2.80;;;7.30;99.90;;;;;;5030577;28;20294;-81
2020/12/24 11:11:08;;;;;;;5.17;2.83;;;7.20;99.90;;;;;;5013360;28;20266;-80
2020/12/24 11:13:34;;;;;;;7.67;3.10;;;7.30;99.90;;;;;;5031305;28;20216;-80
2020/12/24 11:16:00;;;;;;;7.83;2.67;;;7.30;99.90;;;;;;5032314;28;20202;-80
2020/12/24 11:18:26;;;;;;;6.87;2.70;;;7.20;99.90;;;;;;5030756;28;20582;-80
2020/12/24 11:20:54;;;;;;;9.63;3.07;;;7.30;99.90;;;;;;5037006;28;20203;-80
2020/12/24 11:23:20;;;;;;;6.00;2.50;;;7.30;99.90;;;;;;5029622;28;20281;-80
2020/12/24 11:25:45;;;;;;;6.40;1.97;;;7.30;99.90;;;;;;5047784;28;20203;-81
2020/12/24 11:28:11;;;;;;;5.83;2.10;;;7.30;99.90;;;;;;5030894;28;20209;-80
2020/12/24 11:30:37;;;;;;;8.97;2.53;;;7.20;99.90;;;;;;5026054;28;20255;-80
2020/12/24 11:33:03;;;;;;;9.17;1.87;;;7.30;99.90;;;;;;5029981;28;20204;-81
2020/12/24 11:35:29;;;;;;;9.77;2.23;;;7.30;99.90;;;;;;5008316;28;20309;-80
2020/12/24 11:37:54;;;;;;;7.93;2.37;;;7.50;99.90;;;;;;5038163;28;20260;-80
2020/12/24 11:40:20;;;;;;;5.80;1.90;;;7.50;99.90;;;;;;5038889;28;20234;-80
2020/12/24 11:42:46;;;;;;;9.83;2.20;;;7.50;99.90;;;;;;5043102;28;20184;-81
2020/12/24 11:45:12;;;;;;;7.43;2.00;;;7.70;99.90;;;;;;5019769;28;20195;-79
2020/12/24 11:47:37;;;;;;;9.63;1.90;;;7.80;99.90;;;;;;5004992;28;20657;-80
2020/12/24 11:50:05;;;;;;;10.93;2.00;;;7.60;99.90;;;;;;5029406;28;20228;-79
2020/12/24 11:52:35;;;;;;;9.70;1.80;;;7.60;99.90;;;;;;5029001;28;20185;-80
2020/12/24 11:55:01;;;;;;;6.83;1.43;;;7.60;99.90;;;;;;5031276;28;20273;-80
2020/12/24 11:57:27;;;;;;;5.73;1.23;;;7.70;99.90;;;;;;5038568;28;20710;-78
2020/12/24 11:59:52;;;;;;;7.47;1.30;;;7.60;99.90;;;;;;5035638;28;20635;-79
2020/12/24 12:02:18;;;;;;;9.90;1.40;;;7.50;99.90;;;;;;5027356;28;20912;-79
2020/12/24 12:04:44;;;;;;;7.30;1.50;;;7.60;99.90;;;;;;5033683;28;20654;-83
2020/12/24 12:07:09;;;;;;;5.73;1.10;;;7.60;99.90;;;;;;5031755;28;20552;-80
2020/12/24 12:09:35;;;;;;;8.03;1.30;;;7.70;99.90;;;;;;5041850;28;20196;-79
2020/12/24 12:12:00;;;;;;;6.33;1.10;;;7.70;99.90;;;;;;5031211;28;20216;-81
2020/12/24 12:14:26;;;;;;;5.63;1.23;;;7.70;99.90;;;;;;5027859;28;20211;-80
2020/12/24 12:16:52;;;;;;;4.90;1.20;;;8.00;99.90;;;;;;5030243;28;20213;-80
2020/12/24 12:19:17;;;;;;;7.87;1.10;;;8.20;99.90;;;;;;5030752;28;20199;-83
2020/12/24 12:21:44;;;;;;;7.43;1.33;;;8.20;99.90;;;;;;5036780;28;20270;-82
2020/12/24 12:24:09;;;;;;;8.93;1.20;;;8.30;99.90;;;;;;5031171;28;20181;-81
2020/12/24 12:26:35;;;;;;;7.13;1.50;;;8.40;99.90;;;;;;5033639;28;20196;-80
2020/12/24 12:29:01;;;;;;;5.40;1.00;;;8.20;99.90;;;;;;5033079;28;20181;-80
2020/12/24 12:31:26;;;;;;;5.23;1.10;;;8.30;99.90;;;;;;5032315;28;20531;-81
2020/12/24 12:33:55;;;;;;;7.77;1.60;;;8.40;99.90;;;;;;5044084;28;20181;-80
2020/12/24 12:36:23;;;;;;;3.87;0.90;;;8.50;99.90;;;;;;5032612;28;20283;-80
2020/12/24 12:38:49;;;;;;;5.63;0.97;;;8.70;99.90;;;;;;5027483;28;20649;-81
2020/12/24 12:41:17;;;;;;;7.33;1.33;;;8.70;99.90;;;;;;5030927;28;20173;-80
2020/12/24 12:43:43;;;;;;;8.40;1.27;;;8.90;99.90;;;;;;5032129;28;20216;-82
2020/12/24 12:46:09;;;;;;;9.07;1.30;;;9.00;99.90;;;;;;5029560;28;20206;-82
2020/12/24 12:48:35;;;;;;;5.60;0.90;;;9.10;99.90;;;;;;5028129;28;20710;-81